Time;durP1;ratioP1;P1;durP2;ratioP2;P2;SDS_P1;SDS_P2;PMS_P1;PMS_P2;Temp;Humidity;BMP_temperature;BMP_pressure;BME280_temperature;BME280_humidity;BME280_pressure;Samples;Min_cycle;Max_cycle;Signal;HPM_P1;HPM_P2
2023/05/22 00:07:56;;;;;;;;;;;15.70;99.90;;;;;;20895826;28;19917;-75
2023/05/22 00:17:57;;;;;;;;;;;15.70;99.90;;;;;;20908383;28;19917;-75
2023/05/22 00:27:58;;;;;;;;;;;15.80;99.90;;;;;;20903654;28;19908;-75
2023/05/22 00:38:01;;;;;;;;;;;15.70;99.90;;;;;;20889301;28;19959;-75
2023/05/22 00:48:02;;;;;;;;;;;15.70;99.90;;;;;;20889381;28;20548;-75
2023/05/22 00:58:06;;;;;;;;;;;15.70;99.90;;;;;;20888928;28;20001;-75
2023/05/22 01:08:07;;;;;;;;;;;15.50;99.90;;;;;;20888624;28;19967;-75
2023/05/22 01:18:19;;;;;;;;;;;15.50;99.90;;;;;;20888271;28;19959;-75
2023/05/22 01:28:38;;;;;;;;;;;15.50;99.90;;;;;;20908752;28;20375;-76
2023/05/22 01:38:40;;;;;;;;;;;15.50;99.90;;;;;;20920511;28;20387;-75
2023/05/22 01:48:41;;;;;;;;;;;15.50;99.90;;;;;;20892351;28;20363;-75
2023/05/22 01:58:51;;;;;;;;;;;15.50;99.90;;;;;;20919488;28;19944;-74
2023/05/22 02:08:52;;;;;;;;;;;15.30;99.90;;;;;;20917382;28;20372;-74
2023/05/22 02:19:06;;;;;;;;;;;14.90;99.90;;;;;;20916626;28;19913;-76
2023/05/22 02:29:07;;;;;;;;;;;14.80;99.90;;;;;;20901260;28;20029;-75
2023/05/22 02:39:08;;;;;;;;;;;14.70;99.90;;;;;;20911523;28;19938;-75
2023/05/22 02:49:09;;;;;;;;;;;14.50;99.90;;;;;;20896920;28;19915;-76
2023/05/22 02:59:10;;;;;;;;;;;14.30;99.90;;;;;;20893482;28;19974;-75
2023/05/22 03:09:10;;;;;;;;;;;14.10;99.90;;;;;;20899775;28;19920;-75
2023/05/22 03:19:12;;;;;;;;;;;13.80;99.90;;;;;;20912619;28;20375;-78
2023/05/22 03:29:13;;;;;;;;;;;13.60;99.90;;;;;;20893903;28;19962;-75
2023/05/22 03:39:15;;;;;;;;;;;13.40;99.90;;;;;;20883712;28;20007;-75
2023/05/22 03:49:24;;;;;;;;;;;13.10;99.90;;;;;;20879178;28;19908;-77
2023/05/22 03:59:25;;;;;;;;;;;12.90;99.90;;;;;;20908678;28;20295;-76
2023/05/22 04:09:26;;;;;;;;;;;12.90;99.90;;;;;;20889478;28;20058;-76
2023/05/22 04:19:28;;;;;;;;;;;12.60;99.90;;;;;;20898606;28;19916;-77
2023/05/22 04:29:29;;;;;;;;;;;12.70;99.90;;;;;;20916343;28;19956;-77
2023/05/22 04:39:30;;;;;;;;;;;12.80;99.90;;;;;;20965626;28;19920;-77
2023/05/22 04:49:32;;;;;;;;;;;13.00;99.90;;;;;;20874770;28;19916;-76
2023/05/22 04:59:36;;;;;;;;;;;13.40;99.90;;;;;;20903910;28;19916;-77
2023/05/22 05:09:37;;;;;;;;;;;13.90;99.90;;;;;;20964039;28;19916;-76
2023/05/22 05:19:38;;;;;;;;;;;14.40;99.90;;;;;;20887611;28;20275;-75
2023/05/22 05:29:40;;;;;;;;;;;14.50;99.90;;;;;;20888277;28;20279;-75
2023/05/22 05:39:49;;;;;;;;;;;14.60;99.90;;;;;;20891690;28;20266;-75
2023/05/22 05:49:50;;;;;;;;;;;15.30;99.90;;;;;;20897485;28;20391;-75
2023/05/22 05:59:53;;;;;;;;;;;15.70;99.90;;;;;;20896976;28;19913;-75
2023/05/22 06:10:12;;;;;;;;;;;16.30;99.90;;;;;;20914208;28;19913;-75
2023/05/22 06:20:26;;;;;;;;;;;16.80;99.90;;;;;;20895175;28;20279;-76
2023/05/22 06:30:27;;;;;;;;;;;16.50;99.90;;;;;;20878409;28;20383;-74
2023/05/22 06:40:28;;;;;;;;;;;17.40;99.90;;;;;;20894390;28;19931;-76
2023/05/22 06:50:33;;;;;;;;;;;18.20;99.90;;;;;;20893698;28;19913;-76
2023/05/22 07:00:35;;;;;;;;;;;19.00;99.90;;;;;;20886440;28;20120;-76
2023/05/22 07:10:56;;;;;;;;;;;19.60;99.90;;;;;;20902787;28;20275;-76
2023/05/22 07:20:57;;;;;;;;;;;20.00;99.90;;;;;;20881811;28;19913;-76
2023/05/22 07:30:58;;;;;;;;;;;20.50;99.90;;;;;;20889555;28;19923;-76
2023/05/22 07:40:59;;;;;;;;;;;21.00;99.90;;;;;;20908067;28;20299;-76
2023/05/22 07:51:02;;;;;;;;;;;21.10;99.90;;;;;;20888887;28;19912;-76
2023/05/22 08:01:03;;;;;;;;;;;21.00;99.90;;;;;;20875155;28;19919;-76
2023/05/22 08:11:04;;;;;;;;;;;21.30;99.90;;;;;;20887601;28;20272;-75
2023/05/22 08:21:05;;;;;;;;;;;21.70;99.90;;;;;;20905640;28;19970;-76
2023/05/22 08:31:05;;;;;;;;;;;22.50;99.90;;;;;;20895435;28;19974;-76
2023/05/22 08:41:07;;;;;;;;;;;22.50;99.90;;;;;;20885975;28;20000;-76
2023/05/22 08:51:09;;;;;;;;;;;23.20;99.90;;;;;;20885947;28;20291;-76
2023/05/22 09:01:10;;;;;;;;;;;23.60;99.90;;;;;;20903804;28;20389;-76
2023/05/22 09:11:12;;;;;;;;;;;23.70;99.90;;;;;;20903000;28;20292;-76
2023/05/22 09:21:13;;;;;;;;;;;23.60;99.90;;;;;;20903245;28;20519;-76
2023/05/22 09:31:14;;;;;;;;;;;24.60;99.90;;;;;;20892476;28;19920;-76
2023/05/22 09:41:23;;;;;;;;;;;24.20;99.90;;;;;;20900422;28;19909;-76
2023/05/22 09:51:25;;;;;;;;;;;25.20;99.90;;;;;;20901926;28;19919;-75
2023/05/22 10:01:26;;;;;;;;;;;25.50;99.90;;;;;;20917189;28;20286;-76
2023/05/22 10:11:28;;;;;;;;;;;24.90;99.90;;;;;;20916240;28;19958;-75
2023/05/22 10:21:30;;;;;;;;;;;25.50;99.90;;;;;;20915130;28;19916;-76
2023/05/22 10:31:31;;;;;;;;;;;25.50;99.90;;;;;;20908581;28;19935;-76
2023/05/22 10:41:47;;;;;;;;;;;26.20;99.90;;;;;;20891690;28;20112;-76
2023/05/22 10:51:48;;;;;;;;;;;26.30;99.90;;;;;;20912975;28;19989;-76
2023/05/22 11:01:58;;;;;;;;;;;26.50;99.90;;;;;;20910776;28;19955;-75
2023/05/22 11:12:15;;;;;;;;;;;26.10;99.90;;;;;;20893397;28;20022;-76
2023/05/22 11:22:16;;;;;;;;;;;26.40;99.90;;;;;;20897010;28;19951;-75
2023/05/22 11:32:19;;;;;;;;;;;26.50;99.90;;;;;;20909445;28;19967;-76
2023/05/22 11:42:20;;;;;;;;;;;26.70;99.90;;;;;;20908918;28;20260;-76
2023/05/22 11:52:21;;;;;;;;;;;27.00;99.90;;;;;;20906815;28;20012;-76
2023/05/22 12:02:22;;;;;;;;;;;27.40;99.90;;;;;;20896315;28;20342;-75
2023/05/22 12:12:22;;;;;;;;;;;26.90;99.90;;;;;;20905728;28;19931;-75
2023/05/22 12:22:25;;;;;;;;;;;27.60;99.90;;;;;;20905577;28;20003;-76
2023/05/22 12:32:28;;;;;;;;;;;27.40;99.90;;;;;;20904657;28;20008;-76
2023/05/22 12:42:28;;;;;;;;;;;28.00;98.10;;;;;;20903898;28;19916;-76
2023/05/22 12:52:29;;;;;;;;;;;29.30;96.70;;;;;;20894748;28;19913;-75
2023/05/22 13:02:30;;;;;;;;;;;26.90;99.30;;;;;;20890597;28;19944;-75
2023/05/22 13:12:33;;;;;;;;;;;25.00;99.90;;;;;;20902467;28;19913;-75
2023/05/22 13:22:34;;;;;;;;;;;26.10;99.90;;;;;;20902473;28;19909;-75
2023/05/22 13:32:34;;;;;;;;;;;26.20;99.90;;;;;;20900474;28;19920;-75
2023/05/22 13:42:35;;;;;;;;;;;27.40;99.50;;;;;;20917936;28;20359;-76
2023/05/22 13:52:36;;;;;;;;;;;27.30;99.60;;;;;;20916046;28;19913;-75
2023/05/22 14:02:37;;;;;;;;;;;27.50;97.40;;;;;;20916186;28;20345;-75
2023/05/22 14:12:37;;;;;;;;;;;28.10;97.90;;;;;;20915052;28;19944;-75
2023/05/22 14:22:38;;;;;;;;;;;29.60;97.20;;;;;;20886814;28;19947;-75
2023/05/22 14:32:39;;;;;;;;;;;29.90;96.90;;;;;;20914712;28;19913;-76
2023/05/22 14:42:39;;;;;;;;;;;27.60;98.30;;;;;;20913033;28;20262;-76
2023/05/22 14:52:40;;;;;;;;;;;27.60;99.90;;;;;;20904167;28;19951;-75
2023/05/22 15:02:41;;;;;;;;;;;27.30;97.70;;;;;;20893414;28;19915;-76
2023/05/22 15:12:41;;;;;;;;;;;27.90;97.30;;;;;;20906132;28;19988;-76
2023/05/22 15:22:43;;;;;;;;;;;27.20;97.50;;;;;;20907319;28;20016;-75
2023/05/22 15:32:44;;;;;;;;;;;27.20;98.30;;;;;;20908329;28;19959;-75
2023/05/22 15:42:45;;;;;;;;;;;27.30;98.90;;;;;;20950603;28;19919;-75
2023/05/22 15:52:45;;;;;;;;;;;27.70;97.10;;;;;;20952929;28;20011;-75
2023/05/22 16:02:46;;;;;;;;;;;27.60;97.80;;;;;;20906501;28;20008;-75
2023/05/22 16:12:47;;;;;;;;;;;27.00;97.70;;;;;;20905658;28;19917;-76
2023/05/22 16:22:48;;;;;;;;;;;27.20;98.10;;;;;;20892311;28;19958;-76
2023/05/22 16:32:48;;;;;;;;;;;27.20;98.20;;;;;;20893753;28;19938;-76
2023/05/22 16:42:50;;;;;;;;;;;27.10;99.30;;;;;;20903660;28;20005;-76
2023/05/22 16:52:51;;;;;;;;;;;27.10;99.90;;;;;;20903685;28;19912;-75
2023/05/22 17:02:51;;;;;;;;;;;24.60;99.90;;;;;;20896620;28;19975;-75
2023/05/22 17:12:52;;;;;;;;;;;23.40;99.90;;;;;;20919281;28;19931;-75
2023/05/22 17:22:53;;;;;;;;;;;22.90;99.90;;;;;;20918763;28;20287;-75
2023/05/22 17:32:55;;;;;;;;;;;23.00;99.90;;;;;;20909072;28;19913;-76
2023/05/22 17:42:57;;;;;;;;;;;22.80;99.90;;;;;;20902446;28;19909;-75
2023/05/22 17:52:58;;;;;;;;;;;22.60;99.90;;;;;;20955379;28;20282;-76
2023/05/22 18:02:58;;;;;;;;;;;22.30;99.90;;;;;;20947570;28;19976;-75
2023/05/22 18:12:59;;;;;;;;;;;21.80;99.90;;;;;;20953776;28;19912;-75
2023/05/22 18:22:59;;;;;;;;;;;21.40;99.90;;;;;;20943203;28;19924;-75
2023/05/22 18:33:00;;;;;;;;;;;20.90;99.90;;;;;;20918728;28;20389;-75
2023/05/22 18:43:01;;;;;;;;;;;19.80;99.90;;;;;;20906040;28;19950;-75
2023/05/22 18:53:01;;;;;;;;;;;19.60;99.90;;;;;;20907945;28;20025;-75
2023/05/22 19:03:02;;;;;;;;;;;19.80;99.90;;;;;;20893686;28;19909;-75
2023/05/22 19:13:03;;;;;;;;;;;19.20;99.90;;;;;;20900327;28;19919;-75
2023/05/22 19:23:05;;;;;;;;;;;19.10;99.90;;;;;;20910887;28;19955;-75
2023/05/22 19:33:06;;;;;;;;;;;18.50;99.90;;;;;;20903877;28;19919;-75
2023/05/22 19:43:06;;;;;;;;;;;18.40;99.90;;;;;;20895117;28;20364;-74
2023/05/22 19:53:07;;;;;;;;;;;17.60;99.90;;;;;;20882943;28;19912;-75
2023/05/22 20:03:08;;;;;;;;;;;17.70;99.90;;;;;;20904879;28;20011;-74
2023/05/22 20:13:09;;;;;;;;;;;17.20;99.90;;;;;;20905113;28;19962;-74
2023/05/22 20:23:09;;;;;;;;;;;17.00;99.90;;;;;;20895582;28;19963;-75
2023/05/22 20:33:10;;;;;;;;;;;17.10;99.90;;;;;;20928442;28;20007;-75
2023/05/22 20:43:12;;;;;;;;;;;16.80;99.90;;;;;;20925462;28;19954;-75
2023/05/22 20:53:13;;;;;;;;;;;16.80;99.90;;;;;;20965311;28;19916;-75
2023/05/22 21:03:14;;;;;;;;;;;16.60;99.90;;;;;;20941634;28;19945;-74
2023/05/22 21:13:15;;;;;;;;;;;16.50;99.90;;;;;;20905017;28;19964;-75
2023/05/22 21:23:15;;;;;;;;;;;16.10;99.90;;;;;;20905339;28;19909;-75
2023/05/22 21:33:16;;;;;;;;;;;16.00;99.90;;;;;;20930749;28;19912;-74
2023/05/22 21:43:17;;;;;;;;;;;16.00;99.90;;;;;;20940758;28;19909;-75
2023/05/22 21:53:17;;;;;;;;;;;15.80;99.90;;;;;;20996751;28;20329;-75
2023/05/22 22:03:18;;;;;;;;;;;15.70;99.90;;;;;;20949852;28;19917;-75
2023/05/22 22:13:19;;;;;;;;;;;15.60;99.90;;;;;;20936911;28;19939;-75
2023/05/22 22:23:20;;;;;;;;;;;15.50;99.90;;;;;;20917926;28;19912;-75
2023/05/22 22:33:21;;;;;;;;;;;15.50;99.90;;;;;;20917186;28;19928;-75
2023/05/22 22:43:22;;;;;;;;;;;15.60;99.90;;;;;;20899129;28;19912;-75
2023/05/22 22:53:22;;;;;;;;;;;15.10;99.90;;;;;;20892906;28;19913;-76
2023/05/22 23:03:23;;;;;;;;;;;15.00;99.90;;;;;;20902834;28;20245;-75
2023/05/22 23:13:24;;;;;;;;;;;15.10;99.90;;;;;;20909747;28;19912;-75
2023/05/22 23:23:26;;;;;;;;;;;15.00;99.90;;;;;;20910389;28;19908;-75
2023/05/22 23:33:27;;;;;;;;;;;15.00;99.90;;;;;;20912215;28;19913;-75
2023/05/22 23:43:27;;;;;;;;;;;14.70;99.90;;;;;;20912338;28;20004;-75
